Time;durP1;ratioP1;P1;durP2;ratioP2;P2;SDS_P1;SDS_P2;PMS_P1;PMS_P2;Temp;Humidity;BMP_temperature;BMP_pressure;BME280_temperature;BME280_humidity;BME280_pressure;Samples;Min_cycle;Max_cycle;Signal;HPM_P1;HPM_P2
2023/04/06 00:02:17;;;;;;;11.15;5.20;;;;;;;2.54;62.29;101735.88;5072133;28;20062;-78
2023/04/06 00:04:44;;;;;;;10.45;5.03;;;;;;;2.53;62.33;101740.16;5072336;28;20532;-78
2023/04/06 00:07:09;;;;;;;10.63;5.20;;;;;;;2.53;62.48;101736.72;5072471;28;20116;-78
2023/04/06 00:09:34;;;;;;;11.02;5.00;;;;;;;2.50;62.49;101734.06;5071641;28;20116;-78
2023/04/06 00:12:00;;;;;;;11.90;5.25;;;;;;;2.45;62.21;101729.66;5072613;28;20021;-78
2023/04/06 00:14:25;;;;;;;10.63;5.00;;;;;;;2.43;62.25;101733.00;5071563;28;20061;-78
2023/04/06 00:16:50;;;;;;;10.50;4.95;;;;;;;2.37;63.09;101731.09;5072708;28;20100;-79
2023/04/06 00:19:19;;;;;;;9.88;5.00;;;;;;;2.33;63.51;101726.69;5072691;28;20063;-78
2023/04/06 00:21:47;;;;;;;10.00;4.60;;;;;;;2.29;63.17;101728.28;5071824;28;20025;-78
2023/04/06 00:24:12;;;;;;;9.65;5.00;;;;;;;2.29;62.84;101727.44;5072826;28;20047;-78
2023/04/06 00:26:38;;;;;;;10.68;5.00;;;;;;;2.27;62.94;101717.09;5076127;28;20052;-78
2023/04/06 00:29:06;;;;;;;10.45;5.03;;;;;;;2.28;62.59;101715.44;5076059;28;20031;-78
2023/04/06 00:31:31;;;;;;;10.88;5.20;;;;;;;2.23;62.59;101710.16;5076368;28;20036;-78
2023/04/06 00:33:59;;;;;;;12.20;5.53;;;;;;;2.28;63.03;101712.88;5076601;28;20438;-78
2023/04/06 00:36:25;;;;;;;11.23;5.30;;;;;;;2.29;63.28;101707.78;5075540;28;20469;-78
2023/04/06 00:38:50;;;;;;;11.90;5.30;;;;;;;2.30;62.22;101704.41;5076133;28;20032;-78
2023/04/06 00:41:17;;;;;;;13.18;5.55;;;;;;;2.32;63.35;101707.00;5076335;28;20410;-78
2023/04/06 00:43:43;;;;;;;10.88;5.30;;;;;;;2.33;63.06;101702.78;5075290;28;20464;-79
2023/04/06 00:46:08;;;;;;;12.63;5.60;;;;;;;2.29;62.88;101694.13;5076380;28;20071;-78
2023/04/06 00:48:33;;;;;;;11.50;5.38;;;;;;;2.31;63.27;101693.34;5075907;28;20024;-78
2023/04/06 00:50:59;;;;;;;13.85;6.20;;;;;;;2.31;62.51;101695.91;5075244;28;20021;-78
2023/04/06 00:53:24;;;;;;;12.85;5.72;;;;;;;2.30;63.03;101688.19;5075775;28;20108;-79
2023/04/06 00:55:49;;;;;;;13.60;6.18;;;;;;;2.28;63.21;101688.13;5076134;28;20024;-78
2023/04/06 00:58:15;;;;;;;11.70;5.57;;;;;;;2.26;63.21;101689.75;5075291;28;20051;-78
2023/04/06 01:00:41;;;;;;;10.57;5.20;;;;;;;2.23;63.19;101681.09;5075396;28;20358;-78
2023/04/06 01:03:07;;;;;;;12.75;5.50;;;;;;;2.21;63.65;101687.84;5075949;28;20095;-78
2023/04/06 01:05:40;;;;;;;11.25;5.57;;;;;;;2.14;64.07;101681.66;5074546;28;20426;-78
2023/04/06 01:08:05;;;;;;;11.63;5.05;;;;;;;2.13;63.31;101677.38;5075607;28;20079;-78
2023/04/06 01:10:31;;;;;;;11.68;5.88;;;;;;;2.14;63.95;101673.97;5075537;28;20025;-78
2023/04/06 01:12:56;;;;;;;11.55;5.22;;;;;;;2.12;63.22;101671.38;5074770;28;20500;-78
2023/04/06 01:15:23;;;;;;;11.98;5.53;;;;;;;2.11;63.95;101674.75;5057446;28;20028;-79
2023/04/06 01:17:48;;;;;;;9.98;4.90;;;;;;;2.09;64.55;101673.81;5074906;28;20054;-79
2023/04/06 01:20:14;;;;;;;11.85;5.22;;;;;;;2.05;64.57;101664.31;5075515;28;20028;-78
2023/04/06 01:22:39;;;;;;;10.02;4.78;;;;;;;2.06;64.36;101670.31;5075042;28;20103;-79
2023/04/06 01:25:05;;;;;;;11.05;4.90;;;;;;;2.04;64.37;101672.81;5074877;28;20028;-78
2023/04/06 01:27:31;;;;;;;10.50;5.07;;;;;;;2.03;64.73;101667.66;5074992;28;20024;-78
2023/04/06 01:29:56;;;;;;;10.93;4.97;;;;;;;2.02;65.34;101659.09;5075345;28;20029;-78
2023/04/06 01:32:21;;;;;;;9.15;4.53;;;;;;;2.00;64.56;101663.28;5074301;28;20054;-78
2023/04/06 01:34:47;;;;;;;9.38;4.72;;;;;;;1.99;64.36;101652.19;5074749;28;20448;-78
2023/04/06 01:37:12;;;;;;;10.43;4.72;;;;;;;1.99;65.58;101648.75;5074911;28;20031;-79
2023/04/06 01:39:37;;;;;;;8.13;4.28;;;;;;;2.03;65.26;101654.84;5073970;28;20075;-78
2023/04/06 01:42:03;;;;;;;10.18;4.70;;;;;;;2.00;65.26;101648.81;5075147;28;20107;-78
2023/04/06 01:44:30;;;;;;;11.05;5.00;;;;;;;2.05;64.80;101651.53;5074868;28;20412;-78
2023/04/06 01:46:55;;;;;;;;;;;;;;;2.06;64.82;101652.38;5074922;28;20029;-78
2023/04/06 01:49:20;;;;;;;10.57;4.67;;;;;;;2.02;68.00;101641.16;5074738;28;19961;-78
2023/04/06 01:51:45;;;;;;;9.32;4.60;;;;;;;2.02;66.77;101642.88;5074941;28;20032;-78
2023/04/06 01:54:11;;;;;;;11.05;4.78;;;;;;;2.03;66.91;101645.47;5074439;28;20060;-78
2023/04/06 01:56:36;;;;;;;9.77;4.45;;;;;;;2.02;66.50;101638.59;5074696;28;20020;-78
2023/04/06 01:59:02;;;;;;;9.98;4.50;;;;;;;2.05;66.57;101632.72;5074988;28;20036;-78
2023/04/06 02:01:27;;;;;;;8.07;4.22;;;;;;;2.07;66.10;101628.50;5073717;28;20435;-78
2023/04/06 02:03:52;;;;;;;9.07;4.60;;;;;;;2.11;67.08;101635.50;5074863;28;20050;-78
2023/04/06 02:06:35;;;;;;;8.35;4.25;;;;;;;2.13;66.46;101628.72;5074759;28;20051;-78
2023/04/06 02:09:01;;;;;;;10.80;4.90;;;;;;;2.13;65.94;101624.47;5073932;28;20025;-78
2023/04/06 02:11:26;;;;;;;11.38;4.85;;;;;;;2.18;65.53;101619.47;5073993;28;20020;-78
2023/04/06 02:13:51;;;;;;;10.48;4.88;;;;;;;2.23;65.76;101617.94;5074229;28;20135;-78
2023/04/06 02:16:16;;;;;;;12.40;5.43;;;;;;;2.27;66.57;101619.78;5073858;28;20040;-78
2023/04/06 02:18:42;;;;;;;12.27;5.03;;;;;;;2.30;67.14;101614.75;5074198;28;20099;-78
2023/04/06 02:21:07;;;;;;;9.32;4.70;;;;;;;2.36;66.49;101614.06;5073603;28;20058;-78
2023/04/06 02:23:32;;;;;;;9.50;4.82;;;;;;;2.41;66.16;101607.41;5073934;28;20017;-78
2023/04/06 02:25:58;;;;;;;9.75;4.30;;;;;;;2.43;66.92;101603.19;5074629;28;20033;-78
2023/04/06 02:28:23;;;;;;;7.88;4.20;;;;;;;2.44;65.84;101607.47;5073259;28;20028;-78
2023/04/06 02:30:48;;;;;;;12.45;5.22;;;;;;;2.47;65.21;101604.16;5074170;28;20353;-78
2023/04/06 02:33:14;;;;;;;11.20;5.30;;;;;;;2.50;65.66;101599.13;5073753;28;20120;-78
2023/04/06 02:35:39;;;;;;;11.38;5.32;;;;;;;2.48;65.74;101590.50;5073040;28;20025;-78
2023/04/06 02:38:05;;;;;;;10.35;4.82;;;;;;;2.52;65.82;101596.63;5074018;28;20036;-78
2023/04/06 02:40:30;;;;;;;12.77;5.50;;;;;;;2.56;65.44;101593.31;5074010;28;20056;-78
2023/04/06 02:42:55;;;;;;;9.50;4.95;;;;;;;2.58;65.81;101589.09;5073582;28;20476;-79
2023/04/06 02:45:24;;;;;;;10.18;4.88;;;;;;;2.59;67.91;101586.56;5073529;28;20108;-78
2023/04/06 02:47:49;;;;;;;10.82;5.22;;;;;;;2.58;66.46;101584.84;5073208;28;20077;-79
2023/04/06 02:50:14;;;;;;;10.23;5.03;;;;;;;2.61;66.34;101584.06;5072853;28;20032;-79
2023/04/06 02:52:40;;;;;;;11.18;5.20;;;;;;;2.63;66.01;101578.16;5073600;28;20024;-78
2023/04/06 02:55:07;;;;;;;10.18;5.07;;;;;;;2.68;66.08;101580.00;5073732;28;20020;-78
2023/04/06 02:57:32;;;;;;;10.18;4.80;;;;;;;2.70;66.32;101571.50;5072385;28;20028;-78
2023/04/06 02:59:58;;;;;;;9.52;5.10;;;;;;;2.72;66.79;101566.41;5073640;28;20040;-78
2023/04/06 03:02:23;;;;;;;11.30;5.22;;;;;;;2.73;66.90;101569.06;5073339;28;20029;-79
2023/04/06 03:04:48;;;;;;;10.38;5.00;;;;;;;2.75;67.98;101562.28;5072601;28;20024;-78
2023/04/06 03:07:14;;;;;;;10.30;4.72;;;;;;;2.72;68.51;101562.19;5073328;28;20027;-79
2023/04/06 03:09:39;;;;;;;9.27;4.35;;;;;;;2.70;68.75;101561.25;5073303;28;20055;-79
2023/04/06 03:12:05;;;;;;;9.15;4.45;;;;;;;2.68;67.69;101557.78;5072738;28;20024;-78
2023/04/06 03:14:30;;;;;;;9.15;4.60;;;;;;;2.71;66.53;101562.13;5073146;28;20090;-79
2023/04/06 03:16:55;;;;;;;9.00;4.60;;;;;;;2.72;67.48;101562.19;5073048;28;20070;-78
2023/04/06 03:19:21;;;;;;;8.98;4.55;;;;;;;2.72;67.83;101559.63;5072731;28;20021;-78
2023/04/06 03:21:47;;;;;;;9.27;4.50;;;;;;;2.74;67.05;101557.09;5072942;28;20549;-78
2023/04/06 03:24:13;;;;;;;9.80;4.70;;;;;;;2.74;67.59;101554.53;5073056;28;20384;-78
2023/04/06 03:26:38;;;;;;;8.45;4.20;;;;;;;2.75;68.21;101553.69;5072773;28;20419;-79
2023/04/06 03:29:04;;;;;;;8.30;4.13;;;;;;;2.73;70.40;101550.22;5073100;28;20025;-79
2023/04/06 03:31:29;;;;;;;8.55;4.20;;;;;;;2.72;69.18;101543.34;5071944;28;20051;-79
2023/04/06 03:33:55;;;;;;;8.35;4.15;;;;;;;2.71;69.52;101542.50;5072844;28;20089;-78
2023/04/06 03:36:20;;;;;;;6.15;3.65;;;;;;;2.69;71.20;101543.28;5072885;28;20097;-79
2023/04/06 03:38:45;;;;;;;7.35;3.88;;;;;;;2.66;70.49;101538.91;5072525;28;20056;-79
2023/04/06 03:41:10;;;;;;;6.68;3.65;;;;;;;2.66;70.15;101538.06;5073207;28;20096;-79
2023/04/06 03:43:39;;;;;;;6.78;3.55;;;;;;;2.63;69.29;101537.16;5072873;28;20043;-79
2023/04/06 03:46:13;;;;;;;7.35;3.72;;;;;;;2.66;68.90;101538.06;5071772;28;20016;-78
2023/04/06 03:48:38;;;;;;;7.75;3.72;;;;;;;2.67;68.89;101540.66;5072397;28;20173;-78
2023/04/06 03:51:04;;;;;;;9.23;4.18;;;;;;;2.66;69.08;101538.06;5072863;28;20527;-78
2023/04/06 03:53:29;;;;;;;9.20;4.53;;;;;;;2.69;70.29;101545.84;5071658;28;20029;-78
2023/04/06 03:55:55;;;;;;;8.45;4.07;;;;;;;2.69;69.40;101535.59;5072587;28;20027;-78
2023/04/06 03:58:23;;;;;;;9.43;4.40;;;;;;;2.69;69.04;101538.16;5072231;28;20108;-78
2023/04/06 04:00:48;;;;;;;7.85;4.00;;;;;;;2.68;70.20;101534.72;5071232;28;20056;-78
2023/04/06 04:03:14;;;;;;;6.82;3.65;;;;;;;2.68;70.22;101536.41;5072412;28;20059;-78
2023/04/06 04:05:39;;;;;;;8.02;3.70;;;;;;;2.68;69.83;101539.00;5072340;28;20519;-78
2023/04/06 04:08:04;;;;;;;6.90;3.47;;;;;;;2.67;69.58;101532.97;5071855;28;20055;-78
2023/04/06 04:10:30;;;;;;;6.10;3.42;;;;;;;2.65;69.88;101541.44;5072272;28;20017;-78
2023/04/06 04:12:55;;;;;;;6.43;3.30;;;;;;;2.63;70.01;101543.97;5088736;23;20441;-78
2023/04/06 04:15:20;;;;;;;7.93;3.70;;;;;;;2.61;69.70;101533.66;5091635;28;20024;-78
2023/04/06 04:17:48;;;;;;;6.72;3.50;;;;;;;2.60;69.69;101538.75;5092568;28;20019;-78
2023/04/06 04:20:14;;;;;;;7.97;4.20;;;;;;;2.62;68.71;101537.13;5092658;28;20085;-78
2023/04/06 04:22:40;;;;;;;8.80;4.60;;;;;;;2.65;71.40;101542.31;5091634;28;20020;-78
2023/04/06 04:25:08;;;;;;;10.45;4.53;;;;;;;2.63;69.58;101536.28;5092658;28;20082;-78
2023/04/06 04:27:34;;;;;;;8.93;4.60;;;;;;;2.61;69.38;101537.94;5091602;28;20443;-78
2023/04/06 04:29:59;;;;;;;8.45;4.13;;;;;;;2.63;70.24;101529.47;5092342;28;20142;-78
2023/04/06 04:32:27;;;;;;;10.18;4.50;;;;;;;2.61;70.68;101538.78;5092035;28;20468;-78
2023/04/06 04:34:53;;;;;;;7.68;3.70;;;;;;;2.59;70.60;101524.22;5092056;28;20062;-78
2023/04/06 04:37:21;;;;;;;6.70;3.50;;;;;;;2.60;70.98;101534.50;5092749;28;20036;-78
2023/04/06 04:39:47;;;;;;;8.65;3.90;;;;;;;2.58;68.85;101533.59;5092683;28;20020;-78
2023/04/06 04:42:12;;;;;;;8.43;4.22;;;;;;;2.56;70.46;101527.56;5091920;28;20081;-78
2023/04/06 04:44:38;;;;;;;8.20;4.30;;;;;;;2.58;70.42;101525.91;5092236;28;20039;-78
2023/04/06 04:47:03;;;;;;;8.50;4.20;;;;;;;2.60;70.52;101528.50;5092629;28;20352;-78
2023/04/06 04:49:31;;;;;;;10.52;4.90;;;;;;;2.60;69.18;101519.13;5091301;28;20035;-78
2023/04/06 04:51:56;;;;;;;10.38;4.70;;;;;;;2.64;70.01;101530.34;5092639;28;20077;-78
2023/04/06 04:54:25;;;;;;;9.68;4.50;;;;;;;2.66;69.43;101528.66;5092253;28;20421;-79
2023/04/06 04:56:51;;;;;;;9.70;4.97;;;;;;;2.69;69.22;101530.47;5091581;28;20024;-78
2023/04/06 04:59:16;;;;;;;11.57;5.18;;;;;;;2.70;70.59;101519.41;5092230;28;20024;-78
2023/04/06 05:01:47;;;;;;;10.18;4.93;;;;;;;2.72;71.48;101523.72;5092218;28;20047;-78
2023/04/06 05:04:13;;;;;;;9.38;4.85;;;;;;;2.72;72.01;101520.28;5141764;22;20262;-78
2023/04/06 05:06:38;;;;;;;10.90;5.07;;;;;;;2.75;71.02;101520.38;5071989;28;20028;-78
2023/04/06 05:09:03;;;;;;;11.93;5.70;;;;;;;2.77;69.91;101523.84;5072092;28;20017;-79
2023/04/06 05:11:28;;;;;;;11.45;5.47;;;;;;;2.78;70.09;101523.03;5072330;28;20033;-79
2023/04/06 05:13:54;;;;;;;13.90;6.20;;;;;;;2.83;69.81;101525.72;5075569;28;20028;-79
2023/04/06 05:16:19;;;;;;;12.68;5.95;;;;;;;2.82;70.01;101521.41;5075258;28;20446;-79
2023/04/06 05:18:45;;;;;;;13.10;5.57;;;;;;;2.88;70.26;101527.59;5074966;28;20078;-78
2023/04/06 05:21:11;;;;;;;13.23;6.10;;;;;;;2.91;68.99;101521.66;5075389;28;20024;-79
2023/04/06 05:23:36;;;;;;;10.25;5.53;;;;;;;2.94;69.52;101521.75;5075209;28;20028;-78
2023/04/06 05:26:02;;;;;;;13.00;6.15;;;;;;;2.96;69.30;101525.25;5074561;28;20083;-78
2023/04/06 05:28:27;;;;;;;15.50;6.97;;;;;;;3.03;68.94;101523.72;5075025;28;20016;-78
2023/04/06 05:30:53;;;;;;;16.15;7.80;;;;;;;3.08;68.42;101522.13;5074614;28;20024;-78
2023/04/06 05:33:18;;;;;;;18.42;8.23;;;;;;;3.08;68.30;101524.69;5074092;28;20032;-79
2023/04/06 05:35:43;;;;;;;20.05;9.90;;;;;;;3.16;68.68;101524.91;5074893;28;20051;-79
2023/04/06 05:38:11;;;;;;;19.50;9.40;;;;;;;3.16;68.35;101517.19;5074539;28;20033;-78
2023/04/06 05:40:38;;;;;;;18.98;8.85;;;;;;;3.17;68.22;101514.66;5074627;28;20499;-78
2023/04/06 05:43:03;;;;;;;19.52;9.90;;;;;;;3.21;68.35;101519.06;5074967;28;20055;-78
2023/04/06 05:45:28;;;;;;;18.85;9.18;;;;;;;3.20;68.35;101509.63;5073655;28;20052;-79
2023/04/06 05:47:54;;;;;;;19.15;9.02;;;;;;;3.24;69.83;101516.56;5074958;28;20540;-78
2023/04/06 05:50:19;;;;;;;15.93;7.65;;;;;;;3.21;70.39;101508.78;5073341;28;20107;-78
2023/04/06 05:52:46;;;;;;;17.60;8.50;;;;;;;3.30;68.28;101515.88;5073481;28;20056;-78
2023/04/06 05:55:11;;;;;;;18.92;8.93;;;;;;;3.32;70.05;101513.31;5074839;28;20028;-78
2023/04/06 05:57:36;;;;;;;17.52;8.10;;;;;;;3.37;68.25;101516.88;5074480;28;20024;-78
2023/04/06 06:00:03;;;;;;;19.02;8.82;;;;;;;3.39;68.11;101520.34;5073937;28;20032;-79
2023/04/06 06:02:30;;;;;;;19.77;9.50;;;;;;;3.44;68.32;101516.19;5074622;28;20582;-78
2023/04/06 06:04:58;;;;;;;19.10;9.38;;;;;;;3.48;68.89;101510.34;5074551;28;20440;-78
2023/04/06 06:07:24;;;;;;;19.27;9.77;;;;;;;3.51;68.52;101515.50;5073668;28;20029;-80
2023/04/06 06:09:49;;;;;;;19.08;9.18;;;;;;;3.55;68.80;101512.22;5074575;28;20040;-78
2023/04/06 06:12:17;;;;;;;18.85;8.93;;;;;;;3.59;68.93;101512.28;5073764;28;20024;-77
2023/04/06 06:14:43;;;;;;;17.92;7.88;;;;;;;3.64;68.75;101515.81;5070929;28;20031;-77
2023/04/06 06:17:08;;;;;;;19.00;8.63;;;;;;;3.70;68.52;101526.25;5073653;28;20028;-77
2023/04/06 06:19:33;;;;;;;15.68;7.32;;;;;;;3.74;69.52;101530.59;5073515;28;20028;-77
2023/04/06 06:22:01;;;;;;;16.05;7.47;;;;;;;3.77;68.50;101524.69;5072632;28;20491;-77
2023/04/06 06:24:31;;;;;;;16.08;7.50;;;;;;;3.85;68.98;101526.59;5074095;28;20029;-78
2023/04/06 06:26:56;;;;;;;16.85;7.80;;;;;;;3.94;68.25;101518.25;5074185;28;20024;-78
2023/04/06 06:29:21;;;;;;;17.23;7.75;;;;;;;4.01;69.75;101519.25;5073382;28;20032;-78
2023/04/06 06:31:46;;;;;;;15.82;7.32;;;;;;;4.06;69.59;101514.22;5074637;28;20088;-78
2023/04/06 06:34:12;;;;;;;16.15;6.85;;;;;;;4.13;69.15;101516.06;5073462;28;20056;-79
2023/04/06 06:36:38;;;;;;;15.27;6.80;;;;;;;4.21;69.33;101524.84;5073937;28;20029;-78
2023/04/06 06:39:03;;;;;;;13.88;6.47;;;;;;;4.27;69.78;101518.97;5074189;28;20021;-78
2023/04/06 06:41:29;;;;;;;18.13;7.55;;;;;;;4.39;68.59;101521.78;5072736;28;20531;-77
2023/04/06 06:43:54;;;;;;;14.45;6.82;;;;;;;4.43;70.04;101526.16;5073272;28;20066;-78
2023/04/06 06:46:20;;;;;;;14.85;6.60;;;;;;;4.48;68.57;101523.69;5073738;28;20472;-78
2023/04/06 06:48:46;;;;;;;13.93;5.60;;;;;;;4.56;69.39;101521.28;5073039;28;20547;-78
2023/04/06 06:51:11;;;;;;;11.20;5.20;;;;;;;4.61;70.48;101517.97;5073500;28;20369;-78
2023/04/06 06:53:37;;;;;;;11.20;5.43;;;;;;;4.66;70.23;101528.34;5073470;28;20032;-78
2023/04/06 06:56:02;;;;;;;13.35;6.10;;;;;;;4.71;68.48;101519.03;5072981;28;20068;-78
2023/04/06 06:58:28;;;;;;;15.40;7.10;;;;;;;4.73;68.58;101509.59;5073198;28;20036;-77
2023/04/06 07:00:57;;;;;;;18.13;8.00;;;;;;;4.79;67.52;101512.31;5073816;28;20033;-77
2023/04/06 07:03:22;;;;;;;18.55;8.60;;;;;;;4.84;67.59;101514.97;5073858;22;20053;-78
2023/04/06 07:05:55;;;;;;;19.98;9.60;;;;;;;4.88;67.42;101518.47;5053291;28;20540;-78
2023/04/06 07:08:22;;;;;;;19.42;9.45;;;;;;;4.93;67.52;101519.44;5052634;28;20107;-80
2023/04/06 07:10:48;;;;;;;19.67;10.13;;;;;;;4.97;67.26;101515.22;5052126;28;20111;-78
2023/04/06 07:13:21;;;;;;;18.87;9.17;;;;;;;5.02;68.63;101511.00;5053466;28;20469;-78
2023/04/06 07:15:46;;;;;;;18.90;8.90;;;;;;;5.05;68.18;101508.50;5053412;28;20029;-78
2023/04/06 07:18:12;;;;;;;18.80;9.27;;;;;;;5.16;66.67;101509.56;5052436;28;20037;-78
2023/04/06 07:20:37;;;;;;;18.57;9.20;;;;;;;5.13;67.17;101508.63;5052821;28;20032;-78
2023/04/06 07:23:02;;;;;;;18.77;9.10;;;;;;;5.16;67.05;101508.69;5053137;28;20029;-78
2023/04/06 07:25:28;;;;;;;18.92;8.75;;;;;;;5.18;66.77;101502.72;5051981;28;20029;-78
2023/04/06 07:27:53;;;;;;;17.33;8.00;;;;;;;5.24;66.94;101512.25;5053225;28;20438;-78
2023/04/06 07:30:19;;;;;;;18.55;8.80;;;;;;;5.31;66.79;101508.94;5053173;28;20024;-78
2023/04/06 07:32:45;;;;;;;19.93;9.77;;;;;;;5.34;66.24;101503.00;5051659;28;20029;-79
2023/04/06 07:35:10;;;;;;;18.80;9.27;;;;;;;5.38;66.25;101499.63;5052746;28;20025;-78
2023/04/06 07:37:35;;;;;;;21.10;10.18;;;;;;;5.44;66.38;101510.03;5051631;28;20082;-79
2023/04/06 07:40:01;;;;;;;18.00;8.37;;;;;;;5.49;66.95;101507.53;5051919;28;20057;-79
2023/04/06 07:42:26;;;;;;;17.97;8.40;;;;;;;5.54;66.17;101506.78;5052371;28;20024;-79
2023/04/06 07:44:51;;;;;;;18.40;8.40;;;;;;;5.60;66.40;101502.53;5052229;28;20017;-79
2023/04/06 07:47:16;;;;;;;15.20;7.13;;;;;;;5.67;67.09;101505.25;5052829;28;20108;-77
2023/04/06 07:49:42;;;;;;;16.80;7.97;;;;;;;5.75;66.38;101500.22;5052548;28;20116;-79
2023/04/06 07:52:07;;;;;;;16.17;7.43;;;;;;;5.79;66.54;101495.97;5051897;28;20025;-79
2023/04/06 07:54:32;;;;;;;15.93;7.10;;;;;;;5.86;66.54;101501.25;5052242;28;20031;-79
2023/04/06 07:56:58;;;;;;;14.15;6.60;;;;;;;5.91;66.09;101498.75;5052400;28;20069;-79
2023/04/06 07:59:23;;;;;;;16.73;7.18;;;;;;;5.96;65.58;101494.53;5051838;28;20107;-79
2023/04/06 08:01:49;;;;;;;15.73;7.33;;;;;;;5.98;65.71;101497.97;5052805;28;20025;-79
2023/04/06 08:04:14;;;;;;;19.23;9.05;;;;;;;6.02;65.35;101497.22;5052313;28;20084;-79
2023/04/06 08:06:40;;;;;;;19.00;9.00;;;;;;;6.08;65.19;101498.16;5051260;28;20035;-80
2023/04/06 08:09:06;;;;;;;20.15;10.02;;;;;;;6.18;64.52;101500.00;5051974;28;20483;-79
2023/04/06 08:11:34;;;;;;;18.83;9.02;;;;;;;6.13;65.48;101496.50;5051814;28;20029;-79
2023/04/06 08:13:59;;;;;;;19.75;9.73;;;;;;;6.21;64.69;101494.88;5051856;28;20021;-79
2023/04/06 08:16:24;;;;;;;18.70;9.00;;;;;;;6.24;65.33;101500.09;5052068;28;20487;-79
2023/04/06 08:18:50;;;;;;;16.97;7.57;;;;;;;6.27;65.94;101502.72;5052398;28;20108;-80
2023/04/06 08:21:15;;;;;;;20.30;9.67;;;;;;;6.46;64.28;101502.94;5051552;28;20056;-79
2023/04/06 08:23:41;;;;;;;19.33;9.75;;;;;;;6.39;65.17;101494.25;5052138;28;20123;-79
2023/04/06 08:26:06;;;;;;;17.25;8.30;;;;;;;6.46;65.63;101503.81;5052648;28;20021;-79
2023/04/06 08:28:32;;;;;;;16.50;7.10;;;;;;;6.52;64.89;101500.44;5051123;28;20083;-79
2023/04/06 08:30:57;;;;;;;13.83;6.57;;;;;;;6.59;65.38;101509.97;5052014;28;20033;-79
2023/04/06 08:33:22;;;;;;;17.67;7.47;;;;;;;6.67;65.80;101504.03;5051608;28;20028;-79
2023/04/06 08:35:48;;;;;;;15.47;7.00;;;;;;;6.73;65.20;101509.28;5051421;28;20100;-79
2023/04/06 08:38:13;;;;;;;14.45;6.63;;;;;;;6.78;65.54;101507.59;5051902;28;20049;-79
2023/04/06 08:40:44;;;;;;;14.98;6.93;;;;;;;6.85;64.61;101509.41;5051697;28;20051;-79
2023/04/06 08:43:13;;;;;;;13.93;6.47;;;;;;;6.90;64.94;101510.31;5052218;28;20021;-79
2023/04/06 08:45:40;;;;;;;15.02;6.68;;;;;;;6.95;64.72;101512.94;5053180;28;20040;-79
2023/04/06 08:48:06;;;;;;;;;;;;;;;7.04;65.58;101507.88;5055859;28;20040;-79
2023/04/06 08:50:33;;;;;;;16.35;7.43;;;;;;;7.10;64.09;101515.69;5055820;28;19923;-79
2023/04/06 08:52:59;;;;;;;16.52;7.22;;;;;;;7.15;64.66;101508.00;5055936;28;20032;-79
2023/04/06 08:55:24;;;;;;;14.35;6.45;;;;;;;7.21;65.68;101505.44;5054971;28;20028;-79
2023/04/06 08:57:53;;;;;;;13.00;5.93;;;;;;;7.30;65.69;101509.84;5055812;28;20029;-79
2023/04/06 09:00:19;;;;;;;14.25;6.70;;;;;;;7.40;64.34;101510.81;5056034;28;20025;-79
2023/04/06 09:02:45;;;;;;;13.57;6.30;;;;;;;7.45;64.16;101508.25;5054948;28;20028;-79
2023/04/06 09:05:12;;;;;;;12.48;5.82;;;;;;;7.54;65.49;101508.31;5055892;28;20036;-79
2023/04/06 09:07:37;;;;;;;12.10;5.60;;;;;;;7.63;65.18;101510.13;5055490;28;20025;-79
2023/04/06 09:10:07;;;;;;;11.00;5.57;;;;;;;7.72;65.48;101516.19;5054650;28;20378;-79
2023/04/06 09:12:33;;;;;;;16.38;6.57;;;;;;;7.82;65.38;101511.13;5054573;28;20039;-79
2023/04/06 09:15:00;;;;;;;14.63;6.20;;;;;;;7.91;64.69;101510.31;5055442;28;20099;-75
2023/04/06 09:17:25;;;;;;;14.13;6.63;;;;;;;7.99;65.00;101516.41;5054423;28;20032;-75
2023/04/06 09:19:51;;;;;;;10.40;5.23;;;;;;;8.08;65.77;101516.47;5055382;28;20465;-75
2023/04/06 09:22:17;;;;;;;11.23;5.17;;;;;;;8.17;65.80;101516.50;5055401;28;20112;-76
2023/04/06 09:24:47;;;;;;;11.70;5.67;;;;;;;8.27;65.72;101516.53;5054339;28;20527;-80
2023/04/06 09:27:13;;;;;;;12.68;5.65;;;;;;;8.37;67.01;101520.06;5055192;28;20056;-81
2023/04/06 09:29:40;;;;;;;12.73;5.50;;;;;;;8.42;65.83;101515.75;5054841;28;20564;-81
2023/04/06 09:32:07;;;;;;;11.63;5.03;;;;;;;8.49;66.79;101515.81;5054440;28;20029;-81
2023/04/06 09:34:39;;;;;;;14.35;6.40;;;;;;;8.57;67.38;101514.97;5054935;28;20024;-81
2023/04/06 09:37:19;;;;;;;14.25;6.75;;;;;;;8.57;67.28;101513.28;5054067;28;20465;-81
2023/04/06 09:39:45;;;;;;;15.18;6.70;;;;;;;8.64;66.30;101506.41;5055372;28;20036;-81
2023/04/06 09:42:23;;;;;;;15.98;7.57;;;;;;;8.62;67.04;101508.97;5054898;28;20064;-81
2023/04/06 09:44:48;;;;;;;14.48;6.78;;;;;;;8.64;67.72;101509.84;5054492;28;20017;-82
2023/04/06 09:47:15;;;;;;;13.73;6.40;;;;;;;8.68;66.65;101515.88;5054780;28;20032;-82
2023/04/06 09:49:41;;;;;;;14.85;6.97;;;;;;;8.72;68.93;101521.97;5054886;28;20087;-82
2023/04/06 09:52:08;;;;;;;13.27;6.10;;;;;;;8.75;70.03;101516.75;5054183;28;20033;-79
2023/04/06 09:54:41;;;;;;;13.82;6.28;;;;;;;8.79;68.25;101518.50;5054711;28;20116;-80
2023/04/06 09:57:25;;;;;;;14.07;6.20;;;;;;;8.80;68.39;101515.06;5054749;28;20036;-80
2023/04/06 10:00:14;;;;;;;12.88;5.97;;;;;;;8.83;70.13;101515.09;5054172;28;20079;-80
2023/04/06 10:02:50;;;;;;;12.20;5.43;;;;;;;8.85;69.61;101515.09;5054286;28;20035;-80
2023/04/06 10:05:42;;;;;;;16.38;7.38;;;;;;;8.83;67.88;101511.63;5053125;28;20044;-81
2023/04/06 10:08:10;;;;;;;16.05;7.40;;;;;;;8.76;67.79;101513.31;5054578;28;20021;-82
2023/04/06 10:10:36;;;;;;;13.30;6.35;;;;;;;8.73;67.99;101518.47;5054239;28;20108;-82
2023/04/06 10:13:03;;;;;;;14.30;6.60;;;;;;;8.68;70.70;101518.47;5053860;28;20116;-82
2023/04/06 10:15:29;;;;;;;;;;;;;;;8.66;69.12;101527.97;5054584;28;20028;-82
2023/04/06 10:17:56;;;;;;;15.90;6.93;;;;;;;8.62;69.37;101524.47;5054690;28;20374;-83
2023/04/06 10:20:27;;;;;;;14.65;6.32;;;;;;;8.59;70.04;101519.31;5053526;28;20024;-82
2023/04/06 10:23:22;;;;;;;14.88;6.78;;;;;;;8.57;70.26;101521.03;5054661;28;20028;-83
2023/04/06 10:25:55;;;;;;;12.68;5.90;;;;;;;8.59;71.82;101526.19;5053991;28;20041;-86
2023/04/06 10:28:26;;;;;;;13.18;6.10;;;;;;;8.60;71.05;101525.34;5053530;28;20029;-83
2023/04/06 10:31:00;;;;;;;12.10;5.72;;;;;;;8.59;72.54;101527.09;5053778;28;20373;-83
2023/04/06 10:33:27;;;;;;;13.00;5.78;;;;;;;8.58;72.45;101525.34;5053125;28;20483;-83
2023/04/06 10:35:52;;;;;;;13.82;6.68;;;;;;;8.60;71.59;101518.47;5054118;28;20108;-83
2023/04/06 10:38:21;;;;;;;16.00;6.90;;;;;;;8.57;71.18;101525.31;5053610;28;20109;-84
2023/04/06 10:40:47;;;;;;;14.82;6.47;;;;;;;8.52;71.28;101522.72;5052992;28;20416;-84
2023/04/06 10:43:19;;;;;;;13.70;6.25;;;;;;;8.48;71.92;101519.25;5053932;28;20047;-84
2023/04/06 10:45:55;;;;;;;15.30;6.80;;;;;;;8.45;73.27;101519.22;5054102;28;20416;-84
2023/04/06 10:48:20;;;;;;;14.55;6.95;;;;;;;8.43;74.29;101520.06;5052571;28;20059;-84
2023/04/06 10:50:51;;;;;;;14.00;6.33;;;;;;;8.34;75.58;101518.28;5053135;28;20033;-84
2023/04/06 10:53:23;;;;;;;14.80;6.47;;;;;;;8.29;75.75;101510.50;5048182;28;20680;-83
2023/04/06 10:55:50;;;;;;;13.80;6.20;;;;;;;8.24;75.15;101516.53;5050673;28;20796;-84
2023/04/06 10:58:16;;;;;;;13.18;6.18;;;;;;;8.09;75.87;101504.38;5052197;28;20033;-84
2023/04/06 11:00:49;;;;;;;14.63;6.33;;;;;;;8.25;75.24;101500.16;5051850;28;20073;-84
2023/04/06 11:03:15;;;;;;;14.98;7.00;;;;;;;8.17;77.23;101513.03;5051983;28;20056;-85
2023/04/06 11:05:48;;;;;;;13.68;6.32;;;;;;;8.07;75.98;101498.31;5053230;28;20029;-85
2023/04/06 11:08:24;;;;;;;12.80;5.97;;;;;;;8.08;76.73;101494.88;5051811;28;20086;-85
2023/04/06 11:10:49;;;;;;;13.48;5.72;;;;;;;8.12;78.73;101499.25;5051076;28;20036;-84
2023/04/06 11:13:15;;;;;;;10.40;5.10;;;;;;;8.03;77.29;101489.69;5037634;28;20033;-85
2023/04/06 11:15:40;;;;;;;13.23;5.73;;;;;;;8.07;76.39;101493.16;5032026;28;20473;-84
2023/04/06 11:18:06;;;;;;;15.07;6.57;;;;;;;8.12;76.88;101500.09;5033576;28;20078;-85
2023/04/06 11:20:31;;;;;;;13.03;6.50;;;;;;;8.09;77.20;101491.47;5032939;28;20043;-85
2023/04/06 11:22:58;;;;;;;12.30;5.93;;;;;;;8.01;78.36;101487.13;5051823;28;20460;-85
2023/04/06 11:25:24;;;;;;;12.55;5.90;;;;;;;8.01;81.13;101487.13;5053136;28;20021;-85